Time;durP1;ratioP1;P1;durP2;ratioP2;P2;SDS_P1;SDS_P2;PMS_P1;PMS_P2;Temp;Humidity;BMP_temperature;BMP_pressure;BME280_temperature;BME280_humidity;BME280_pressure;Samples;Min_cycle;Max_cycle;Signal;HPM_P1;HPM_P2
2024/02/10 00:01:27;;;;;;;18.30;4.40;;;17.40;71.10;;;;;;5051804;28;20051;-74
2024/02/10 00:03:53;;;;;;;15.75;4.13;;;17.40;71.10;;;;;;5034085;28;20051;-76
2024/02/10 00:06:19;;;;;;;13.07;3.90;;;17.30;70.60;;;;;;5052098;28;20115;-75
2024/02/10 00:08:44;;;;;;;17.75;4.65;;;17.30;70.70;;;;;;5051738;28;20025;-76
2024/02/10 00:11:11;;;;;;;14.20;3.88;;;17.30;70.80;;;;;;5052223;28;20029;-75
2024/02/10 00:13:39;;;;;;;19.17;4.35;;;17.30;71.40;;;;;;5051737;28;20033;-74
2024/02/10 00:16:05;;;;;;;12.85;3.58;;;17.30;70.60;;;;;;5051635;28;20047;-75
2024/02/10 00:18:31;;;;;;;15.32;4.30;;;17.30;70.50;;;;;;5051698;28;20033;-74
2024/02/10 00:20:57;;;;;;;15.77;3.80;;;17.30;70.60;;;;;;5051901;28;20036;-74
2024/02/10 00:23:24;;;;;;;15.95;4.13;;;17.30;70.60;;;;;;5055653;28;20437;-74
2024/02/10 00:25:52;;;;;;;15.93;4.22;;;17.30;70.50;;;;;;5055253;28;20018;-74
2024/02/10 00:28:19;;;;;;;17.40;4.20;;;17.30;70.50;;;;;;5055606;28;20048;-76
2024/02/10 00:30:45;;;;;;;16.63;4.10;;;17.30;70.40;;;;;;5055505;28;20037;-75
2024/02/10 00:33:10;;;;;;;15.27;4.47;;;17.30;70.50;;;;;;5037588;28;20033;-75
2024/02/10 00:35:36;;;;;;;17.73;4.88;;;17.40;70.60;;;;;;5055338;28;20067;-75
2024/02/10 00:38:03;;;;;;;11.43;3.97;;;17.40;70.60;;;;;;5055166;28;20083;-75
2024/02/10 00:40:30;;;;;;;13.20;4.35;;;17.40;70.60;;;;;;5055433;28;20479;-75
2024/02/10 00:42:56;;;;;;;18.23;4.25;;;17.50;70.70;;;;;;5055708;28;20059;-75
2024/02/10 00:45:22;;;;;;;19.05;4.32;;;17.40;70.10;;;;;;5055287;28;20048;-69
2024/02/10 00:47:48;;;;;;;14.80;4.93;;;17.40;70.50;;;;;;5055060;28;20063;-74
2024/02/10 00:50:17;;;;;;;20.23;4.15;;;17.40;70.60;;;;;;5054966;28;20033;-74
2024/02/10 00:52:48;;;;;;;19.73;3.88;;;17.40;70.40;;;;;;5055312;28;20036;-74
2024/02/10 00:55:14;;;;;;;22.17;5.00;;;17.40;70.80;;;;;;5037307;28;20029;-74
2024/02/10 00:57:40;;;;;;;22.52;4.57;;;17.40;71.00;;;;;;5055059;28;20478;-74
2024/02/10 01:00:11;;;;;;;17.65;4.65;;;17.40;71.10;;;;;;5054412;28;20055;-75
2024/02/10 01:02:37;;;;;;;16.17;5.28;;;17.40;71.40;;;;;;5054993;28;20579;-73
2024/02/10 01:05:05;;;;;;;16.85;4.63;;;17.40;71.30;;;;;;5055098;28;20025;-74
2024/02/10 01:07:31;;;;;;;18.45;5.30;;;17.40;71.30;;;;;;5054736;28;20521;-76
2024/02/10 01:09:56;;;;;;;20.25;5.07;;;17.40;71.40;;;;;;5054438;28;20079;-74
2024/02/10 01:12:22;;;;;;;21.45;5.18;;;17.40;71.80;;;;;;5054525;28;20033;-74
2024/02/10 01:14:50;;;;;;;24.98;5.70;;;17.40;71.80;;;;;;5054561;28;20037;-74
2024/02/10 01:17:16;;;;;;;19.13;5.18;;;17.50;72.00;;;;;;5054192;28;20044;-76
2024/02/10 01:19:51;;;;;;;21.85;5.15;;;17.50;72.00;;;;;;5054508;28;20037;-74
2024/02/10 01:22:22;;;;;;;22.13;4.68;;;17.50;72.10;;;;;;5054523;28;20566;-74
2024/02/10 01:24:53;;;;;;;18.65;4.63;;;17.40;72.00;;;;;;5054391;28;20047;-75
2024/02/10 01:27:26;;;;;;;23.98;5.20;;;17.50;72.40;;;;;;5054378;28;20538;-75
2024/02/10 01:30:01;;;;;;;23.23;4.90;;;17.50;72.70;;;;;;5054252;28;20037;-75
2024/02/10 01:32:27;;;;;;;23.67;5.38;;;17.50;72.50;;;;;;5053680;28;20029;-76
2024/02/10 01:34:54;;;;;;;18.23;4.78;;;17.50;72.40;;;;;;5053857;28;20037;-74
2024/02/10 01:37:20;;;;;;;24.08;4.40;;;17.50;72.80;;;;;;5054347;28;20040;-76
2024/02/10 01:39:48;;;;;;;17.02;4.65;;;17.50;72.80;;;;;;5054234;28;20052;-75
2024/02/10 01:42:15;;;;;;;18.77;4.60;;;17.50;73.00;;;;;;5036127;28;20348;-74
2024/02/10 01:44:43;;;;;;;19.77;5.18;;;17.50;73.10;;;;;;5053989;28;20103;-75
2024/02/10 01:47:10;;;;;;;20.05;5.07;;;17.50;73.10;;;;;;5036189;28;20048;-72
2024/02/10 01:49:39;;;;;;;20.52;4.75;;;17.50;73.30;;;;;;5053903;28;20112;-74
2024/02/10 01:52:09;;;;;;;21.45;5.65;;;17.40;73.50;;;;;;5035956;28;20060;-74
2024/02/10 01:54:39;;;;;;;20.80;4.90;;;17.40;73.50;;;;;;5053969;28;20029;-73
2024/02/10 01:57:06;;;;;;;31.13;5.28;;;17.40;73.50;;;;;;5053501;28;20041;-74
2024/02/10 01:59:35;;;;;;;23.92;5.32;;;17.40;73.50;;;;;;5053800;28;20076;-75
2024/02/10 02:02:03;;;;;;;22.40;4.90;;;17.40;73.60;;;;;;5053242;28;20052;-75
2024/02/10 02:04:35;;;;;;;19.20;5.00;;;17.40;73.60;;;;;;5053562;28;20098;-73
2024/02/10 02:07:05;;;;;;;17.73;4.32;;;17.40;73.60;;;;;;5053575;28;20112;-75
2024/02/10 02:09:30;;;;;;;19.25;4.70;;;17.40;73.80;;;;;;5053194;28;20021;-74
2024/02/10 02:11:56;;;;;;;23.92;5.00;;;17.40;73.80;;;;;;5053120;28;20033;-74
2024/02/10 02:14:22;;;;;;;22.75;5.10;;;17.40;73.70;;;;;;5052804;28;20411;-74
2024/02/10 02:16:48;;;;;;;18.70;4.97;;;17.40;73.70;;;;;;5053166;28;20037;-74
2024/02/10 02:19:16;;;;;;;18.23;4.63;;;17.40;73.60;;;;;;5052956;28;20064;-74
2024/02/10 02:21:42;;;;;;;18.48;5.43;;;17.40;73.60;;;;;;5052653;28;20049;-73
2024/02/10 02:24:09;;;;;;;16.45;5.25;;;17.40;73.90;;;;;;5052890;28;20083;-75
2024/02/10 02:26:34;;;;;;;24.77;5.13;;;17.40;73.80;;;;;;5053247;28;20048;-74
2024/02/10 02:29:00;;;;;;;16.60;4.20;;;17.40;73.80;;;;;;5053021;28;20025;-74
2024/02/10 02:31:26;;;;;;;21.98;4.88;;;17.40;73.70;;;;;;5052947;28;20033;-74
2024/02/10 02:34:02;;;;;;;22.08;5.60;;;17.40;74.00;;;;;;5034525;28;20047;-74
2024/02/10 02:36:28;;;;;;;19.60;4.95;;;17.40;73.90;;;;;;5052716;28;20120;-74
2024/02/10 02:38:54;;;;;;;15.13;5.07;;;17.40;74.10;;;;;;5052918;28;20033;-75
2024/02/10 02:41:20;;;;;;;23.35;5.53;;;17.40;74.00;;;;;;5052661;28;20048;-75
2024/02/10 02:43:46;;;;;;;21.60;4.72;;;17.40;74.10;;;;;;5052598;28;20021;-73
2024/02/10 02:46:14;;;;;;;19.10;5.10;;;17.50;74.30;;;;;;5052143;28;20044;-73
2024/02/10 02:48:42;;;;;;;19.17;4.63;;;17.50;74.50;;;;;;5052812;28;20033;-75
2024/02/10 02:51:07;;;;;;;24.13;5.38;;;17.50;74.30;;;;;;5052609;28;20075;-74
2024/02/10 02:53:33;;;;;;;24.52;5.70;;;17.50;74.10;;;;;;5052732;28;20442;-73
2024/02/10 02:55:59;;;;;;;25.63;5.65;;;17.50;74.30;;;;;;5052447;28;20402;-74
2024/02/10 02:58:24;;;;;;;20.92;4.90;;;17.50;74.50;;;;;;5052346;28;20044;-75
2024/02/10 03:00:50;;;;;;;19.60;5.88;;;17.40;74.30;;;;;;5052449;28;20103;-73
2024/02/10 03:03:19;;;;;;;25.25;5.10;;;17.40;74.60;;;;;;5052637;28;20052;-76
2024/02/10 03:05:45;;;;;;;22.60;5.30;;;17.50;74.50;;;;;;5052809;28;20355;-75
2024/02/10 03:08:11;;;;;;;25.52;5.50;;;17.50;74.70;;;;;;5052743;28;20095;-72
2024/02/10 03:10:36;;;;;;;20.17;5.53;;;17.40;74.70;;;;;;5052325;28;20095;-74
2024/02/10 03:13:02;;;;;;;31.98;6.32;;;17.40;74.90;;;;;;5052791;28;20059;-75
2024/02/10 03:15:30;;;;;;;21.38;5.78;;;17.40;74.80;;;;;;5052327;28;20025;-73
2024/02/10 03:17:56;;;;;;;23.90;5.68;;;17.40;75.00;;;;;;5046848;28;20087;-75
2024/02/10 03:20:23;;;;;;;27.70;5.93;;;17.40;74.90;;;;;;5031037;28;20030;-75
2024/02/10 03:22:54;;;;;;;24.95;5.68;;;17.40;75.00;;;;;;5032160;28;20045;-74
2024/02/10 03:25:22;;;;;;;33.33;6.00;;;17.40;75.00;;;;;;5033448;28;20032;-73
2024/02/10 03:27:48;;;;;;;30.83;6.70;;;17.40;75.10;;;;;;5032323;28;20080;-73
2024/02/10 03:30:15;;;;;;;24.48;5.93;;;17.40;75.20;;;;;;5032134;28;20498;-75
2024/02/10 03:32:42;;;;;;;20.27;5.57;;;17.40;75.20;;;;;;5032254;28;20182;-75
2024/02/10 03:35:08;;;;;;;24.92;6.38;;;17.40;75.30;;;;;;5032190;28;20471;-73
2024/02/10 03:37:35;;;;;;;33.58;6.07;;;17.50;75.40;;;;;;5031014;28;20041;-74
2024/02/10 03:40:11;;;;;;;25.67;5.65;;;17.40;75.30;;;;;;5032472;28;20049;-74
2024/02/10 03:42:37;;;;;;;28.45;6.50;;;17.40;75.30;;;;;;5032527;28;20096;-74
2024/02/10 03:45:03;;;;;;;30.58;5.97;;;17.40;75.50;;;;;;5031771;28;20065;-74
2024/02/10 03:47:29;;;;;;;26.80;6.75;;;17.40;75.80;;;;;;5031997;28;20032;-73
2024/02/10 03:49:54;;;;;;;32.22;6.85;;;17.30;75.60;;;;;;5032127;28;20029;-74
2024/02/10 03:52:20;;;;;;;24.08;5.70;;;17.30;75.80;;;;;;5032223;28;20080;-74
2024/02/10 03:54:47;;;;;;;31.40;6.55;;;17.30;75.90;;;;;;5031971;28;20466;-73
2024/02/10 03:57:12;;;;;;;27.73;6.70;;;17.40;76.10;;;;;;5034971;28;20125;-74
2024/02/10 03:59:41;;;;;;;25.48;5.82;;;17.40;75.90;;;;;;5051514;28;20123;-75
2024/02/10 04:02:06;;;;;;;29.65;6.70;;;17.40;75.90;;;;;;5055361;28;20124;-74
2024/02/10 04:04:34;;;;;;;34.15;7.57;;;17.40;75.90;;;;;;5055974;28;20109;-74
2024/02/10 04:07:00;;;;;;;29.55;6.47;;;17.40;75.90;;;;;;5055627;28;20041;-73
2024/02/10 04:09:26;;;;;;;29.67;6.35;;;17.40;76.00;;;;;;5055905;28;20039;-75
2024/02/10 04:11:51;;;;;;;31.58;7.07;;;17.40;76.00;;;;;;5056012;28;20040;-74
2024/02/10 04:14:20;;;;;;;29.27;6.18;;;17.40;75.80;;;;;;5056139;28;20033;-74
2024/02/10 04:16:52;;;;;;;32.50;6.65;;;17.40;75.80;;;;;;5055498;28;20041;-74
2024/02/10 04:19:18;;;;;;;30.38;6.05;;;17.40;76.00;;;;;;5055466;28;20033;-74
2024/02/10 04:21:46;;;;;;;26.73;6.40;;;17.40;75.90;;;;;;5055483;28;20045;-76
2024/02/10 04:24:16;;;;;;;23.85;5.80;;;17.40;75.90;;;;;;5037884;28;20120;-74
2024/02/10 04:26:43;;;;;;;35.58;6.70;;;17.40;75.90;;;;;;5055457;28;20429;-74
2024/02/10 04:29:08;;;;;;;32.33;6.75;;;17.40;76.10;;;;;;5055021;28;20029;-74
2024/02/10 04:31:39;;;;;;;26.60;6.75;;;17.40;76.20;;;;;;5055409;28;20033;-73
2024/02/10 04:34:05;;;;;;;40.42;7.50;;;17.40;76.30;;;;;;5055125;28;20462;-73
2024/02/10 04:36:31;;;;;;;35.13;6.53;;;17.40;76.30;;;;;;5037460;28;20124;-73
2024/02/10 04:38:57;;;;;;;36.88;7.15;;;17.40;76.30;;;;;;5055057;28;20133;-74
2024/02/10 04:41:23;;;;;;;42.00;7.82;;;17.40;76.30;;;;;;5055100;28;20111;-74
2024/02/10 04:43:49;;;;;;;38.00;7.78;;;17.40;76.20;;;;;;5055016;28;20493;-73
2024/02/10 04:46:16;;;;;;;30.80;6.72;;;17.40;76.20;;;;;;5055172;28;20037;-73
2024/02/10 04:48:43;;;;;;;31.83;6.47;;;17.40;76.00;;;;;;5055083;28;20041;-73
2024/02/10 04:51:09;;;;;;;38.85;7.30;;;17.40;76.10;;;;;;5054791;28;20033;-75
2024/02/10 04:53:34;;;;;;;29.75;6.25;;;17.40;75.80;;;;;;5055123;28;20040;-74
2024/02/10 04:56:00;;;;;;;41.10;7.93;;;17.40;75.50;;;;;;5055106;28;20045;-74
2024/02/10 22:58:30;;;;;;;6.93;2.10;;;14.50;94.50;;;;;;5076954;22;20051;-80
2024/02/10 23:00:56;;;;;;;8.98;2.00;;;14.40;94.50;;;;;;5075290;28;20036;-79
2024/02/10 23:03:23;;;;;;;6.50;2.15;;;14.40;94.50;;;;;;5071856;28;20086;-80
2024/02/10 23:05:49;;;;;;;7.93;2.45;;;14.30;94.50;;;;;;5073087;28;20432;-79
2024/02/10 23:08:15;;;;;;;7.03;2.35;;;14.30;94.60;;;;;;5073400;28;20049;-79
2024/02/10 23:10:42;;;;;;;4.70;1.98;;;14.30;94.60;;;;;;5074468;28;20035;-79
2024/02/10 23:13:08;;;;;;;7.35;2.05;;;14.30;94.70;;;;;;5073356;28;20028;-80
2024/02/10 23:15:40;;;;;;;5.90;1.88;;;14.30;94.80;;;;;;5073209;28;20109;-79
2024/02/10 23:18:13;;;;;;;6.47;2.00;;;14.20;94.80;;;;;;5065185;28;20127;-79
2024/02/10 23:20:41;;;;;;;10.10;2.42;;;14.30;95.00;;;;;;5052644;28;20108;-79
2024/02/10 23:23:14;;;;;;;7.93;2.10;;;14.30;95.00;;;;;;5053688;28;20049;-78
2024/02/10 23:25:43;;;;;;;6.82;1.98;;;14.20;94.70;;;;;;5052272;28;20407;-79
2024/02/10 23:28:14;;;;;;;7.75;2.30;;;14.20;95.10;;;;;;5051419;28;20117;-78
2024/02/10 23:30:49;;;;;;;8.90;2.30;;;14.20;94.90;;;;;;5053053;28;20371;-80
2024/02/10 23:33:23;;;;;;;7.63;2.45;;;14.20;94.90;;;;;;5052824;28;20036;-78
2024/02/10 23:35:50;;;;;;;6.10;2.13;;;14.20;95.00;;;;;;5034822;28;20435;-78
2024/02/10 23:38:16;;;;;;;6.63;1.90;;;14.20;94.90;;;;;;5052667;28;20074;-78
2024/02/10 23:40:45;;;;;;;7.43;2.10;;;14.10;94.80;;;;;;5052581;28;20033;-78
2024/02/10 23:43:14;;;;;;;6.95;1.77;;;14.10;94.80;;;;;;5052607;28;20053;-78
2024/02/10 23:45:42;;;;;;;5.45;2.20;;;14.10;94.80;;;;;;5052679;28;20478;-78
2024/02/10 23:48:10;;;;;;;8.27;1.88;;;14.10;94.80;;;;;;5052332;28;20386;-77
2024/02/10 23:50:36;;;;;;;4.80;1.95;;;14.10;94.90;;;;;;5034400;28;20029;-78
2024/02/10 23:53:09;;;;;;;6.57;2.28;;;14.10;94.80;;;;;;5052385;28;20037;-78
2024/02/10 23:55:36;;;;;;;6.70;2.10;;;14.10;94.80;;;;;;5052828;28;20025;-79
2024/02/10 23:58:04;;;;;;;7.82;2.17;;;14.10;94.80;;;;;;5052475;28;20490;-79
